Time;durP1;ratioP1;P1;durP2;ratioP2;P2;SDS_P1;SDS_P2;PMS_P1;PMS_P2;Temp;Humidity;BMP_temperature;BMP_pressure;BME280_temperature;BME280_humidity;BME280_pressure;Samples;Min_cycle;Max_cycle;Signal;HPM_P1;HPM_P2
2022/04/22 00:00:33;;;;;;;15.83;11.50;;;;;;;7.31;69.47;95959.08;1629244;87;21290;-82
2022/04/22 00:03:01;;;;;;;16.87;11.43;;;;;;;7.31;69.28;95953.11;1641833;87;21120;-82
2022/04/22 00:05:27;;;;;;;13.08;10.72;;;;;;;7.33;69.35;95957.64;1642514;87;21081;-82
2022/04/22 00:07:53;;;;;;;12.05;10.20;;;;;;;7.37;69.41;95953.73;1654775;87;21003;-82
2022/04/22 00:10:19;;;;;;;15.38;12.13;;;;;;;7.39;69.42;95953.87;1654761;87;21507;-82
2022/04/22 00:12:44;;;;;;;14.65;12.20;;;;;;;7.41;69.61;95950.62;1646909;87;21073;-82
2022/04/22 00:15:13;;;;;;;14.68;13.00;;;;;;;7.43;69.57;95947.38;1625349;87;21101;-82
2022/04/22 00:17:38;;;;;;;14.95;12.43;;;;;;;7.44;69.48;95940.42;1623308;88;21026;-82
2022/04/22 00:20:04;;;;;;;16.30;12.78;;;;;;;7.46;69.17;95941.86;1643307;85;21033;-82
2022/04/22 00:22:30;;;;;;;17.65;13.03;;;;;;;7.44;68.99;95937.84;1640968;87;21030;-82
2022/04/22 00:24:56;;;;;;;15.15;11.60;;;;;;;7.42;69.01;95931.55;1654903;87;21006;-82
2022/04/22 00:27:22;;;;;;;14.83;12.53;;;;;;;7.39;69.11;95929.32;1654810;87;21022;-81
2022/04/22 00:29:47;;;;;;;13.72;12.03;;;;;;;7.37;69.50;95930.47;1655066;87;21488;-82
2022/04/22 00:32:13;;;;;;;14.03;12.43;;;;;;;7.36;69.44;95928.87;1654914;87;20972;-82
2022/04/22 00:34:39;;;;;;;13.93;11.57;;;;;;;7.31;69.57;95924.69;1641389;87;21014;-82
2022/04/22 00:37:05;;;;;;;13.13;10.38;;;;;;;7.31;69.29;95927.27;1627089;88;21031;-82
2022/04/22 00:39:30;;;;;;;14.20;11.48;;;;;;;7.30;69.15;95917.91;1626878;88;20996;-82
2022/04/22 00:41:56;;;;;;;15.90;11.35;;;;;;;7.32;69.19;95919.83;1644097;87;21006;-82
2022/04/22 00:44:22;;;;;;;15.70;11.65;;;;;;;7.35;69.14;95920.80;1653163;87;20959;-82
2022/04/22 00:46:48;;;;;;;15.40;11.73;;;;;;;7.36;69.00;95915.94;1627032;88;21006;-82
2022/04/22 00:49:14;;;;;;;16.37;12.00;;;;;;;7.35;68.86;95915.14;1630102;87;21461;-82
2022/04/22 00:51:39;;;;;;;15.08;12.15;;;;;;;7.34;68.86;95916.61;1654678;87;21041;-82
2022/04/22 00:54:05;;;;;;;13.10;11.73;;;;;;;7.31;68.97;95911.76;1654955;87;21401;-82
2022/04/22 00:56:31;;;;;;;15.58;12.65;;;;;;;7.27;68.98;95912.59;1654866;87;21042;-82
2022/04/22 00:58:57;;;;;;;14.03;11.85;;;;;;;7.25;69.34;95916.34;1654947;87;20982;-82
2022/04/22 01:01:24;;;;;;;14.35;12.18;;;;;;;7.22;69.49;95914.41;1628178;88;21533;-82
2022/04/22 01:12:08;;;;;;;14.87;11.53;;;;;;;7.31;69.78;95911.76;1641951;87;21119;-82
2022/04/22 01:14:34;;;;;;;17.35;11.30;;;;;;;7.33;69.61;95905.95;1641979;87;21387;-82
2022/04/22 01:17:01;;;;;;;14.07;11.18;;;;;;;7.34;69.76;95905.78;1641826;87;21055;-82
2022/04/22 01:19:27;;;;;;;14.68;12.23;;;;;;;7.32;69.44;95903.86;1646766;85;21033;-82
2022/04/22 01:21:53;;;;;;;15.18;13.43;;;;;;;7.30;69.36;95902.40;1654676;87;20998;-82
2022/04/22 01:24:19;;;;;;;16.07;14.47;;;;;;;7.28;69.58;95906.94;1654721;87;20994;-82
2022/04/22 01:26:45;;;;;;;18.12;14.75;;;;;;;7.24;69.50;95898.73;1654774;87;21085;-82
2022/04/22 01:29:13;;;;;;;21.10;17.07;;;;;;;7.20;69.48;95900.06;1654949;87;20994;-82
2022/04/22 01:31:39;;;;;;;24.00;18.73;;;;;;;7.15;69.78;95901.85;1654731;87;21359;-82
2022/04/22 01:34:05;;;;;;;23.30;19.30;;;;;;;7.12;69.99;95893.64;1646236;87;20982;-82
2022/04/22 01:36:30;;;;;;;20.85;18.00;;;;;;;7.10;70.00;95895.11;1626772;88;21054;-82
2022/04/22 01:38:56;;;;;;;21.55;18.20;;;;;;;7.12;70.22;95902.20;1626863;88;21421;-82
2022/04/22 01:41:22;;;;;;;21.10;17.35;;;;;;;7.14;70.18;95900.73;1632906;87;20968;-82
2022/04/22 01:43:48;;;;;;;17.15;15.35;;;;;;;7.13;70.12;95894.77;1637038;87;21011;-82
2022/04/22 01:46:15;;;;;;;20.50;17.23;;;;;;;7.11;70.24;95892.84;1626755;88;21051;-82
2022/04/22 01:48:41;;;;;;;19.23;16.40;;;;;;;7.09;70.21;95887.05;1627057;88;21030;-82
2022/04/22 01:51:07;;;;;;;22.67;16.32;;;;;;;7.07;70.25;95890.30;1626661;88;21002;-82
2022/04/22 01:53:33;;;;;;;23.65;18.32;;;;;;;7.05;70.45;95883.70;1613014;88;21445;-82
2022/04/22 01:55:58;;;;;;;23.32;17.52;;;;;;;7.02;70.46;95884.84;1613061;89;21046;-81
2022/04/22 01:58:24;;;;;;;22.62;17.05;;;;;;;7.00;70.62;95883.41;1613120;89;21114;-81
2022/04/22 02:00:50;;;;;;;21.00;15.45;;;;;;;6.98;70.63;95878.88;1614976;87;21026;-82
2022/04/22 02:03:16;;;;;;;19.98;15.78;;;;;;;6.98;70.50;95869.35;1614648;87;21354;-82
2022/04/22 02:05:42;;;;;;;22.00;16.97;;;;;;;7.00;70.51;95870.50;1614690;89;21514;-82
2022/04/22 02:08:08;;;;;;;20.75;16.70;;;;;;;7.02;70.37;95863.37;1614616;89;21047;-82
2022/04/22 02:10:33;;;;;;;21.55;16.35;;;;;;;7.03;70.30;95860.63;1613307;87;22138;-82
2022/04/22 02:13:00;;;;;;;21.07;15.13;;;;;;;7.05;70.29;95856.08;1613098;89;21019;-82
2022/04/22 02:15:26;;;;;;;17.57;14.33;;;;;;;7.04;70.30;95847.22;1613003;89;21095;-82
2022/04/22 02:17:55;;;;;;;16.70;13.18;;;;;;;7.03;70.44;95854.16;1613174;89;21067;-82
2022/04/22 02:20:22;;;;;;;16.85;13.10;;;;;;;7.01;70.38;95857.41;1632140;86;21011;-81
2022/04/22 02:22:48;;;;;;;16.40;13.13;;;;;;;6.99;70.81;95859.82;1614037;87;21467;-82
2022/04/22 02:25:14;;;;;;;18.37;14.15;;;;;;;6.96;70.82;95857.09;1615764;87;21026;-82
2022/04/22 02:30:25;;;;;;;13.90;11.73;;;;;;;6.93;71.22;95853.09;1613179;89;21027;-82
2022/04/22 02:32:50;;;;;;;14.65;11.22;;;;;;;6.91;71.50;95847.78;1637151;87;20972;-82
2022/04/22 02:35:21;;;;;;;16.05;12.18;;;;;;;6.91;71.58;95851.16;1640645;87;21000;-82
2022/04/22 02:37:45;;;;;;;14.70;12.13;;;;;;;6.92;71.67;95853.27;1640396;86;21395;-82
2022/04/22 02:40:11;;;;;;;16.95;13.03;;;;;;;6.91;71.51;95849.88;1640678;87;21035;-82
2022/04/22 02:45:27;;;;;;;17.10;13.78;;;;;;;6.81;71.17;95856.23;1614519;87;21062;-82
2022/04/22 02:47:56;;;;;;;14.93;10.88;;;;;;;6.71;71.05;95853.08;1614463;89;21071;-82
2022/04/22 02:50:23;;;;;;;16.50;12.65;;;;;;;6.61;71.03;95851.50;1614705;89;21007;-81
2022/04/22 02:52:49;;;;;;;17.98;13.15;;;;;;;6.53;71.04;95854.14;1614448;89;21007;-82
2022/04/22 02:55:15;;;;;;;15.60;13.45;;;;;;;6.43;70.96;95847.09;1614472;89;20983;-82
2022/04/22 02:57:43;;;;;;;15.43;12.73;;;;;;;6.37;71.01;95842.61;1614627;89;21106;-82
2022/04/22 03:00:12;;;;;;;15.58;13.08;;;;;;;6.30;70.98;95838.59;1615783;87;21010;-82
2022/04/22 03:02:38;;;;;;;16.93;13.68;;;;;;;6.23;70.91;95840.25;1639365;87;21313;-82
2022/04/22 03:05:05;;;;;;;15.13;13.18;;;;;;;6.19;70.84;95844.63;1639407;87;20980;-82
2022/04/22 03:07:31;;;;;;;16.20;14.50;;;;;;;6.13;70.75;95847.86;1639218;87;21080;-82
2022/04/22 03:09:56;;;;;;;18.02;13.72;;;;;;;6.09;70.75;95838.36;1621099;87;21067;-81
2022/04/22 03:12:23;;;;;;;14.78;12.85;;;;;;;6.03;70.76;95835.17;1613273;87;21012;-82
2022/04/22 03:14:49;;;;;;;17.10;13.18;;;;;;;5.95;70.79;95825.67;1613101;89;21106;-82
2022/04/22 03:17:15;;;;;;;15.60;13.70;;;;;;;5.89;70.73;95822.94;1613262;89;21441;-82
2022/04/22 03:19:42;;;;;;;17.75;14.07;;;;;;;5.82;70.79;95829.22;1613069;89;20969;-82
2022/04/22 03:22:09;;;;;;;17.50;14.13;;;;;;;5.73;70.85;95830.23;1613090;89;21135;-81
2022/04/22 03:24:36;;;;;;;17.25;13.98;;;;;;;5.65;70.93;95827.66;1613263;89;21405;-82
2022/04/22 03:27:03;;;;;;;17.57;14.87;;;;;;;5.58;71.03;95828.00;1613010;89;21069;-81
2022/04/22 03:29:29;;;;;;;18.95;14.00;;;;;;;5.54;71.13;95828.02;1613108;89;21019;-82
2022/04/22 03:31:54;;;;;;;17.02;14.33;;;;;;;5.53;71.10;95835.40;1626582;87;21473;-82
2022/04/22 03:34:22;;;;;;;16.87;14.33;;;;;;;5.48;71.05;95830.74;1640720;87;21024;-82
2022/04/22 03:36:48;;;;;;;15.18;13.35;;;;;;;5.46;71.11;95833.97;1640602;87;21415;-82
2022/04/22 03:39:14;;;;;;;18.77;14.60;;;;;;;5.43;71.22;95821.42;1640684;87;21067;-82
2022/04/22 03:41:40;;;;;;;18.12;14.73;;;;;;;5.38;71.26;95815.96;1640803;87;21030;-81
2022/04/22 03:44:06;;;;;;;16.97;14.45;;;;;;;5.31;71.34;95814.98;1640314;87;21434;-83
2022/04/22 03:46:32;;;;;;;16.90;13.85;;;;;;;5.26;71.44;95818.54;1640979;87;21031;-82
2022/04/22 03:49:00;;;;;;;17.70;14.63;;;;;;;5.19;71.58;95817.08;1640465;86;21605;-82
2022/04/22 03:51:27;;;;;;;20.10;14.58;;;;;;;5.12;71.68;95819.51;1640635;87;21055;-81
2022/04/22 03:53:53;;;;;;;20.68;16.55;;;;;;;5.09;71.86;95816.45;1653427;87;21045;-81
2022/04/22 03:59:05;;;;;;;17.25;14.95;;;;;;;5.09;72.00;95817.75;1654737;87;21057;-81
2022/04/22 04:01:32;;;;;;;17.57;14.13;;;;;;;5.11;72.10;95820.48;1638497;86;21420;-82
2022/04/22 04:03:58;;;;;;;17.30;13.45;;;;;;;5.10;72.12;95820.64;1628277;88;21032;-82
2022/04/22 04:06:24;;;;;;;17.70;14.58;;;;;;;5.06;72.23;95830.47;1632359;87;21037;-81
2022/04/22 04:17:06;;;;;;;24.65;15.70;;;;;;;4.93;72.76;95842.20;1631446;87;21029;-81
2022/04/22 04:25:00;;;;;;;19.37;15.25;;;;;;;4.96;72.90;95840.59;1627346;87;21045;-82
2022/04/22 04:27:26;;;;;;;19.37;16.82;;;;;;;4.99;72.92;95846.70;1629885;87;21451;-82
2022/04/22 04:29:52;;;;;;;22.32;17.10;;;;;;;5.01;72.98;95846.05;1624629;87;21048;-82
2022/04/22 04:32:18;;;;;;;19.55;15.70;;;;;;;5.02;73.20;95848.47;1626043;87;21012;-82
2022/04/22 04:34:44;;;;;;;19.40;15.43;;;;;;;5.03;73.27;95848.78;1624454;87;21421;-82
2022/04/22 04:37:12;;;;;;;18.73;15.20;;;;;;;5.04;73.32;95843.98;1627281;87;21074;-81
2022/04/22 04:39:40;;;;;;;16.80;14.20;;;;;;;5.06;73.38;95843.83;1629374;87;21145;-81
2022/04/22 04:42:08;;;;;;;23.60;19.05;;;;;;;5.07;73.34;95850.09;1647109;87;21102;-82
2022/04/22 04:44:37;;;;;;;29.67;23.15;;;;;;;5.07;73.56;95847.52;1630559;87;21525;-81
2022/04/22 04:47:04;;;;;;;26.90;20.60;;;;;;;5.09;73.71;95849.45;1635383;87;20998;-82
2022/04/22 04:49:30;;;;;;;27.82;22.27;;;;;;;5.16;73.74;95850.09;1654775;85;21492;-81
2022/04/22 04:51:57;;;;;;;28.40;21.07;;;;;;;5.20;73.84;95846.22;1654586;87;21089;-82
2022/04/22 04:54:23;;;;;;;33.23;24.45;;;;;;;5.25;73.78;95840.12;1640701;87;20987;-81
2022/04/22 04:56:50;;;;;;;28.70;23.90;;;;;;;5.29;73.92;95840.91;1640719;87;21035;-81
2022/04/22 04:59:16;;;;;;;33.67;25.88;;;;;;;5.34;74.15;95840.42;1640700;87;21090;-82
2022/04/22 05:01:42;;;;;;;41.92;30.70;;;;;;;5.35;74.37;95840.25;1624929;87;21015;-81
2022/04/22 05:04:08;;;;;;;42.78;32.38;;;;;;;5.39;74.52;95838.18;1614108;87;21114;-81
2022/04/22 05:06:35;;;;;;;41.20;31.17;;;;;;;5.42;74.54;95837.84;1617089;87;20983;-81
2022/04/22 05:09:01;;;;;;;39.30;29.75;;;;;;;5.46;74.79;95830.59;1640459;87;21058;-81
2022/04/22 05:11:26;;;;;;;31.57;25.12;;;;;;;5.51;74.92;95829.13;1619848;87;20960;-81
2022/04/22 05:13:52;;;;;;;27.98;21.12;;;;;;;5.59;75.22;95827.84;1630765;87;21009;-82
2022/04/22 05:16:18;;;;;;;30.27;25.20;;;;;;;5.69;75.23;95827.64;1616832;87;21504;-82
2022/04/22 05:18:43;;;;;;;31.42;24.52;;;;;;;5.78;75.36;95825.86;1613106;87;20963;-82
2022/04/22 05:21:09;;;;;;;27.42;21.07;;;;;;;5.84;75.27;95818.73;1638492;87;21094;-81
2022/04/22 05:23:35;;;;;;;25.48;19.55;;;;;;;5.66;75.26;95787.53;1642360;87;21054;-81
2022/04/22 05:26:02;;;;;;;24.65;18.65;;;;;;;5.92;75.20;95818.76;1640564;87;21003;-82
2022/04/22 05:28:28;;;;;;;25.40;19.90;;;;;;;5.99;75.31;95817.11;1640185;87;21177;-82
2022/04/22 05:33:39;;;;;;;33.10;24.63;;;;;;;6.16;75.05;95810.91;1640262;87;21432;-80
2022/04/22 05:36:06;;;;;;;34.65;25.32;;;;;;;6.33;75.37;95808.58;1640491;87;21430;-81
2022/04/22 05:38:32;;;;;;;28.32;20.10;;;;;;;6.48;75.89;95807.37;1640549;87;21070;-81
2022/04/22 05:40:58;;;;;;;25.25;20.35;;;;;;;6.61;75.50;95808.91;1639460;87;20990;-81
2022/04/22 05:43:24;;;;;;;21.93;17.23;;;;;;;6.71;74.87;95809.19;1640060;87;21050;-82
2022/04/22 05:45:51;;;;;;;30.62;24.02;;;;;;;6.81;74.91;95799.42;1639358;87;21067;-81
2022/04/22 05:48:17;;;;;;;36.83;28.75;;;;;;;6.89;74.51;95801.47;1640430;87;21392;-81
2022/04/22 05:50:42;;;;;;;46.85;32.33;;;;;;;7.00;74.54;95798.98;1640103;86;21090;-81
2022/04/22 05:53:08;;;;;;;40.67;30.17;;;;;;;7.11;74.33;95807.59;1640667;86;21115;-81
2022/04/22 05:55:34;;;;;;;42.00;32.03;;;;;;;7.22;74.41;95813.64;1640875;87;21027;-81
2022/04/22 05:58:01;;;;;;;40.35;29.72;;;;;;;7.32;74.12;95813.87;1640739;87;21047;-81
2022/04/22 06:00:30;;;;;;;38.60;28.90;;;;;;;7.43;74.13;95805.70;1640695;87;21047;-81
2022/04/22 06:02:56;;;;;;;33.80;26.97;;;;;;;7.52;73.39;95806.75;1640782;87;21035;-81
2022/04/22 06:05:22;;;;;;;38.08;30.80;;;;;;;7.62;73.50;95811.64;1640643;87;21056;-81
2022/04/22 06:10:31;;;;;;;26.27;23.35;;;;;;;7.71;73.17;95811.09;1640874;87;21388;-81
2022/04/22 06:10:34;;;;;;;31.00;24.02;;;;;;;7.81;73.55;95816.81;1641401;87;21059;-82
2022/04/22 06:13:00;;;;;;;38.23;30.35;;;;;;;7.89;73.12;95806.86;1639755;87;20972;-81
2022/04/22 06:15:25;;;;;;;37.08;29.87;;;;;;;8.01;72.55;95809.31;1629787;87;21030;-81
2022/04/22 06:17:51;;;;;;;34.63;27.60;;;;;;;8.09;72.44;95807.42;1635890;86;21022;-81
2022/04/22 06:20:19;;;;;;;35.43;27.20;;;;;;;8.21;72.07;95802.59;1617215;87;21363;-81
2022/04/22 06:22:45;;;;;;;37.58;29.63;;;;;;;8.34;72.11;95801.98;1615645;87;21076;-81
2022/04/22 06:25:11;;;;;;;34.75;28.95;;;;;;;8.47;71.59;95802.63;1614498;89;22114;-81
2022/04/22 06:27:40;;;;;;;33.80;27.15;;;;;;;8.59;71.19;95805.84;1614403;89;20983;-81
2022/04/22 06:30:19;;;;;;;32.45;26.00;;;;;;;8.69;70.75;95804.25;1614962;87;21043;-81
2022/04/22 06:32:47;;;;;;;33.55;28.80;;;;;;;8.81;70.20;95811.06;1620576;86;21011;-81
2022/04/22 06:35:14;;;;;;;31.90;26.33;;;;;;;8.92;70.42;95806.17;1615464;87;21030;-81
2022/04/22 06:37:45;;;;;;;33.18;27.02;;;;;;;8.97;69.78;95802.55;1637519;87;21039;-81
2022/04/22 06:45:49;;;;;;;31.52;24.85;;;;;;;9.23;69.85;95790.29;1629627;87;21358;-81
2022/04/22 06:48:30;;;;;;;33.73;25.43;;;;;;;9.36;69.56;95792.19;1616391;87;21413;-81
2022/04/22 06:50:56;;;;;;;33.23;27.48;;;;;;;9.48;69.82;95791.98;1613670;87;21071;-82
2022/04/22 06:53:22;;;;;;;36.25;29.52;;;;;;;9.58;69.23;95791.64;1621010;87;21085;-81
2022/04/22 06:55:50;;;;;;;34.70;28.02;;;;;;;9.66;69.40;95788.91;1628491;87;21414;-82
2022/04/22 06:58:18;;;;;;;31.12;25.30;;;;;;;9.75;69.44;95789.55;1627809;87;21084;-81
2022/04/22 07:00:44;;;;;;;32.23;25.65;;;;;;;9.87;68.41;95795.81;1627322;87;20990;-81
2022/04/22 07:03:11;;;;;;;32.93;27.98;;;;;;;9.96;68.52;95786.09;1628002;87;21405;-81
2022/04/22 07:05:38;;;;;;;36.95;28.60;;;;;;;10.11;68.32;95791.96;1627896;88;21030;-82
2022/04/22 07:08:06;;;;;;;26.52;22.55;;;;;;;10.25;68.16;95798.02;1628315;88;21070;-81
2022/04/22 07:10:36;;;;;;;22.93;18.70;;;;;;;10.29;66.89;95803.15;1628207;88;21090;-81
2022/04/22 07:13:02;;;;;;;24.82;19.50;;;;;;;10.22;65.41;95801.30;1628317;88;21468;-81
2022/04/22 07:15:28;;;;;;;29.37;22.37;;;;;;;10.16;65.19;95806.45;1633323;87;20950;-83
2022/04/22 07:17:55;;;;;;;30.20;23.00;;;;;;;10.14;66.25;95805.34;1655058;87;21036;-82
2022/04/22 07:20:21;;;;;;;26.85;20.90;;;;;;;10.11;66.24;95805.73;1650901;87;20982;-82
2022/04/22 07:22:48;;;;;;;29.32;23.92;;;;;;;10.13;65.16;95802.45;1654635;87;21405;-81
2022/04/22 07:25:14;;;;;;;30.32;25.27;;;;;;;10.18;65.59;95792.28;1654026;85;21345;-81
2022/04/22 07:27:43;;;;;;;25.30;20.72;;;;;;;10.29;65.06;95795.36;1649339;85;21081;-81
2022/04/22 07:30:14;;;;;;;29.15;22.58;;;;;;;10.23;64.75;95791.72;1654441;87;20986;-81
2022/04/22 07:32:41;;;;;;;27.98;24.32;;;;;;;10.26;65.97;95791.86;1653530;85;21001;-82
2022/04/22 07:35:13;;;;;;;25.17;22.00;;;;;;;10.37;65.75;95795.98;1650112;87;21022;-82
2022/04/22 07:37:40;;;;;;;;;;;;;;;10.45;65.77;95796.31;1656040;87;20971;-81
2022/04/22 07:40:07;;;;;;;24.95;20.52;;;;;;;10.53;65.64;95794.83;1638732;87;20129;-81
2022/04/22 07:42:36;;;;;;;27.15;22.85;;;;;;;10.67;65.74;95793.07;1628388;88;21372;-81
2022/04/22 07:47:51;;;;;;;25.48;19.45;;;;;;;10.97;65.24;95789.64;1628383;88;21111;-82
2022/04/22 07:50:20;;;;;;;27.75;21.97;;;;;;;11.05;64.15;95785.53;1633171;85;21059;-81
2022/04/22 07:52:46;;;;;;;25.15;20.80;;;;;;;11.17;65.41;95778.74;1629603;87;21333;-81
2022/04/22 07:55:14;;;;;;;26.65;22.32;;;;;;;11.30;64.13;95776.66;1625056;86;21083;-81
2022/04/22 07:57:41;;;;;;;27.82;22.93;;;;;;;11.38;64.64;95773.33;1638627;87;21446;-81
2022/04/22 08:00:10;;;;;;;28.42;22.65;;;;;;;11.52;64.25;95775.92;1638518;87;21090;-81
2022/04/22 08:02:40;;;;;;;24.35;21.73;;;;;;;11.62;63.70;95780.23;1638430;86;21074;-82
2022/04/22 08:05:04;;;;;;;25.40;21.15;;;;;;;11.69;63.22;95776.59;1639001;86;21051;-81
2022/04/22 08:07:31;;;;;;;24.70;21.95;;;;;;;11.69;62.86;95775.30;1639503;87;20999;-82
2022/04/22 08:09:56;;;;;;;25.02;21.07;;;;;;;11.57;62.51;95773.04;1639313;87;21035;-82
2022/04/22 08:12:22;;;;;;;23.90;20.37;;;;;;;11.61;62.87;95768.22;1639267;87;21008;-82
2022/04/22 08:14:49;;;;;;;24.50;20.43;;;;;;;11.71;63.69;95775.09;1639201;87;21011;-82
2022/04/22 08:17:16;;;;;;;26.82;22.80;;;;;;;11.84;63.59;95771.20;1639077;87;21094;-81
2022/04/22 08:19:43;;;;;;;24.92;22.02;;;;;;;11.95;63.38;95763.27;1639097;87;21007;-82
2022/04/22 08:22:09;;;;;;;26.25;22.27;;;;;;;12.02;62.93;95764.03;1639382;87;21015;-82
2022/04/22 08:24:35;;;;;;;26.68;22.58;;;;;;;12.07;62.55;95756.94;1634424;87;20988;-82
2022/04/22 08:27:00;;;;;;;26.33;21.77;;;;;;;12.07;62.46;95755.13;1614632;89;21363;-81
2022/04/22 08:29:26;;;;;;;25.65;21.00;;;;;;;12.07;62.64;95762.14;1614760;88;21099;-82
2022/04/22 08:31:54;;;;;;;26.30;22.00;;;;;;;12.10;62.15;95760.42;1637575;86;21028;-81
2022/04/22 08:34:19;;;;;;;23.42;20.77;;;;;;;12.19;62.88;95755.26;1640747;87;21397;-81
2022/04/22 08:36:47;;;;;;;26.33;22.40;;;;;;;12.28;62.73;95747.52;1640552;87;21087;-82
2022/04/22 08:39:14;;;;;;;25.52;21.87;;;;;;;12.27;61.78;95748.03;1640086;87;21370;-82
2022/04/22 08:41:43;;;;;;;23.32;20.88;;;;;;;12.25;61.66;95750.05;1640730;87;21023;-82
2022/04/22 08:44:14;;;;;;;24.75;22.00;;;;;;;12.35;61.93;95743.57;1640647;87;21111;-81
2022/04/22 08:52:11;;;;;;;23.40;20.45;;;;;;;12.59;61.59;95738.44;1639942;87;21027;-82
2022/04/22 08:54:43;;;;;;;27.15;21.68;;;;;;;12.67;61.60;95737.88;1650516;87;21044;-81
2022/04/22 08:57:09;;;;;;;24.82;22.07;;;;;;;12.74;60.76;95736.05;1649264;87;21037;-81
2022/04/22 08:59:35;;;;;;;26.00;21.05;;;;;;;12.73;59.38;95731.85;1636051;87;21096;-82
2022/04/22 09:02:03;;;;;;;26.77;22.45;;;;;;;12.68;59.54;95730.36;1653342;87;20954;-82
2022/04/22 09:04:29;;;;;;;26.00;21.23;;;;;;;12.71;59.62;95727.36;1650836;87;21050;-81
2022/04/22 09:06:55;;;;;;;24.55;20.90;;;;;;;12.75;59.17;95731.13;1651246;85;21381;-81
2022/04/22 09:09:20;;;;;;;26.33;21.93;;;;;;;12.69;58.94;95724.96;1652977;87;21024;-82
2022/04/22 09:11:46;;;;;;;23.38;20.48;;;;;;;12.71;58.85;95737.28;1654656;87;21053;-81
2022/04/22 09:14:19;;;;;;;16.75;14.15;;;;;;;12.82;58.67;95737.88;1654303;86;22093;-82
2022/04/22 09:16:43;;;;;;;20.00;17.90;;;;;;;12.91;56.65;95736.62;1651187;87;21380;-81
2022/04/22 09:19:09;;;;;;;22.80;20.30;;;;;;;12.97;58.38;95734.98;1654388;87;20963;-82
2022/04/22 09:21:35;;;;;;;26.07;21.65;;;;;;;12.95;58.20;95721.86;1591948;87;21002;-81
2022/04/22 09:24:13;;;;;;;24.72;22.02;;;;;;;12.97;56.99;95725.84;1610376;87;20999;-81
2022/04/22 09:26:39;;;;;;;22.30;19.67;;;;;;;12.93;57.57;95729.39;1654261;87;21002;-81
2022/04/22 09:29:05;;;;;;;22.90;20.57;;;;;;;12.96;57.54;95730.77;1654217;86;21400;-81
2022/04/22 09:31:48;;;;;;;23.15;19.65;;;;;;;13.00;57.78;95733.24;1654326;87;21048;-81
2022/04/22 09:34:14;;;;;;;20.32;17.82;;;;;;;13.01;57.89;95734.04;1653291;87;20994;-82
2022/04/22 09:45:04;;;;;;;18.90;16.40;;;;;;;12.94;57.29;95735.41;1654190;87;21716;-81
2022/04/22 09:47:32;;;;;;;22.07;19.80;;;;;;;12.82;58.71;95738.39;1650762;87;20958;-81
2022/04/22 09:50:11;;;;;;;21.73;19.42;;;;;;;12.80;59.03;95739.91;1654371;87;21456;-81
2022/04/22 09:52:43;;;;;;;23.38;20.02;;;;;;;12.81;59.21;95744.61;1654392;87;20986;-81
2022/04/22 09:55:08;;;;;;;22.27;19.92;;;;;;;12.74;59.46;95742.06;1642546;85;21075;-81
2022/04/22 09:57:56;;;;;;;20.17;18.05;;;;;;;12.70;58.82;95743.50;1636654;87;21054;-81
2022/04/22 10:00:30;;;;;;;22.32;18.48;;;;;;;12.71;59.11;95741.19;1637059;87;21062;-81
2022/04/22 10:02:56;;;;;;;22.13;17.95;;;;;;;12.74;59.40;95738.66;1640092;87;21425;-81
2022/04/22 10:05:25;;;;;;;23.98;18.62;;;;;;;12.84;59.39;95731.16;1640418;87;20996;-81
2022/04/22 10:07:53;;;;;;;20.02;17.90;;;;;;;12.88;59.80;95740.97;1639613;86;20991;-81
2022/04/22 10:10:24;;;;;;;21.95;18.98;;;;;;;12.97;59.86;95736.78;1636517;87;21528;-81
2022/04/22 10:12:49;;;;;;;21.62;18.45;;;;;;;13.02;59.13;95756.53;1636626;87;20967;-81
2022/04/22 10:15:19;;;;;;;19.85;17.67;;;;;;;13.00;59.10;95743.67;1640359;87;21006;-82
2022/04/22 10:17:48;;;;;;;17.57;15.68;;;;;;;13.02;59.52;95742.98;1640310;87;21019;-82
2022/04/22 10:20:14;;;;;;;17.65;15.75;;;;;;;13.00;58.63;95746.78;1640276;87;21079;-82
2022/04/22 10:22:40;;;;;;;18.20;15.45;;;;;;;12.91;58.90;95728.81;1640327;87;21030;-82
2022/04/22 10:25:09;;;;;;;18.37;15.93;;;;;;;12.95;60.07;95728.38;1640298;87;21436;-81
2022/04/22 10:27:37;;;;;;;19.23;16.85;;;;;;;13.06;59.34;95725.89;1640156;86;22206;-81
2022/04/22 10:30:05;;;;;;;17.55;15.70;;;;;;;13.14;59.24;95718.30;1640197;87;21078;-81
2022/04/22 10:32:33;;;;;;;18.95;16.40;;;;;;;13.25;59.74;95719.45;1640346;87;21429;-81
2022/04/22 10:35:00;;;;;;;16.90;15.00;;;;;;;13.40;59.03;95719.91;1633129;87;20999;-81
2022/04/22 10:37:27;;;;;;;19.67;16.40;;;;;;;13.56;59.28;95719.36;1636709;87;21011;-81
2022/04/22 10:39:56;;;;;;;17.98;15.05;;;;;;;13.60;57.88;95717.10;1640285;87;20991;-81
2022/04/22 10:42:37;;;;;;;20.05;17.32;;;;;;;13.57;58.53;95715.73;1635522;87;20983;-81
2022/04/22 10:47:51;;;;;;;17.27;15.50;;;;;;;13.38;58.44;95714.12;1623869;87;21382;-82
2022/04/22 10:50:37;;;;;;;18.80;14.50;;;;;;;13.47;59.13;95709.69;1640245;87;21006;-81
2022/04/22 10:53:05;;;;;;;19.17;17.07;;;;;;;13.58;59.23;95712.11;1636600;87;21051;-82
2022/04/22 10:55:39;;;;;;;17.55;15.65;;;;;;;13.72;59.09;95712.27;1652607;87;21134;-82
2022/04/22 10:58:20;;;;;;;20.37;15.83;;;;;;;13.82;58.95;95702.59;1652803;85;20998;-82
2022/04/22 11:00:51;;;;;;;17.77;15.53;;;;;;;13.88;58.84;95700.44;1651278;87;21030;-82
2022/04/22 11:03:23;;;;;;;18.75;15.43;;;;;;;13.90;59.01;95708.84;1650042;87;20978;-82
2022/04/22 11:05:54;;;;;;;;;;;;;;;13.82;58.64;95693.45;1656453;86;21034;-82
2022/04/22 11:08:31;;;;;;;19.45;16.70;;;;;;;13.75;58.90;95692.75;1651170;87;20130;-81
2022/04/22 11:11:05;;;;;;;21.60;17.10;;;;;;;13.68;58.72;95710.31;1631124;87;22074;-81
2022/04/22 11:13:46;;;;;;;21.60;17.80;;;;;;;13.67;59.02;95701.68;1654006;85;21133;-81
2022/04/22 11:16:26;;;;;;;22.52;17.48;;;;;;;13.68;59.44;95694.64;1654412;87;21111;-82
2022/04/22 11:19:19;;;;;;;19.70;17.25;;;;;;;13.68;58.81;95694.64;1654513;87;21013;-81
2022/04/22 11:21:53;;;;;;;23.52;18.00;;;;;;;13.47;58.29;95691.93;1650869;87;21042;-81
2022/04/22 11:24:33;;;;;;;23.30;18.20;;;;;;;13.38;58.63;95695.84;1654459;87;21001;-82
2022/04/22 11:27:11;;;;;;;20.23;17.55;;;;;;;13.41;59.59;95692.30;1654358;87;21026;-81
2022/04/22 11:29:40;;;;;;;21.20;17.48;;;;;;;13.42;59.04;95699.11;1654332;87;21037;-82
2022/04/22 11:32:21;;;;;;;20.57;16.85;;;;;;;13.40;59.02;95689.91;1580042;88;20978;-82
2022/04/22 11:35:20;;;;;;;20.05;17.90;;;;;;;13.35;59.72;95698.39;1652834;87;21077;-82
2022/04/22 11:38:01;;;;;;;21.20;17.30;;;;;;;13.30;58.89;95690.89;1654678;87;21010;-82
2022/04/22 11:40:27;;;;;;;20.67;17.33;;;;;;;13.33;59.57;95689.95;1655136;87;21042;-82
2022/04/22 11:42:54;;;;;;;23.42;19.07;;;;;;;13.30;59.56;95694.30;1654196;87;21416;-82
2022/04/22 11:45:22;;;;;;;17.37;14.20;;;;;;;13.23;60.09;95684.95;1654611;85;21039;-82
2022/04/22 11:47:49;;;;;;;25.68;19.32;;;;;;;13.22;59.75;95690.67;1653535;87;21410;-82
2022/04/22 11:50:20;;;;;;;25.50;19.90;;;;;;;13.15;59.80;95688.59;1653414;87;21022;-82
2022/04/22 11:52:53;;;;;;;29.40;21.73;;;;;;;13.09;60.54;95681.63;1653443;87;20998;-82
2022/04/22 11:55:20;;;;;;;27.27;20.97;;;;;;;13.07;60.65;95681.05;1643572;87;21428;-82
2022/04/22 11:57:45;;;;;;;28.50;20.50;;;;;;;13.04;60.77;95683.58;1620893;87;21102;-82
2022/04/22 12:05:49;;;;;;;25.25;20.20;;;;;;;13.13;61.91;95674.45;1614510;87;21434;-82
2022/04/22 12:08:15;;;;;;;;;;;;;;;13.19;61.44;95671.55;1607875;88;21057;-82
2022/04/22 12:10:47;;;;;;;28.83;22.87;;;;;;;13.14;61.48;95670.03;1644200;87;20096;-82
2022/04/22 12:13:16;;;;;;;26.97;21.25;;;;;;;13.14;62.04;95664.82;1617586;87;21390;-82
2022/04/22 12:15:48;;;;;;;26.25;22.48;;;;;;;13.23;62.23;95666.19;1642713;87;20978;-81
2022/04/22 12:18:29;;;;;;;26.23;21.60;;;;;;;13.38;61.05;95654.10;1644006;87;21417;-81
2022/04/22 12:20:56;;;;;;;29.60;21.53;;;;;;;13.38;61.05;95654.10;1644677;87;20967;-82
2022/04/22 12:23:22;;;;;;;24.60;20.05;;;;;;;13.37;61.20;95660.33;1644577;87;21078;-82
2022/04/22 12:25:55;;;;;;;27.65;21.17;;;;;;;13.35;60.82;95653.23;1643672;87;20979;-82
2022/04/22 12:28:21;;;;;;;28.00;22.05;;;;;;;13.25;60.29;95659.44;1634714;87;20967;-83